sensor_id;sensor_type;location;lat;lon;timestamp;P1;durP1;ratioP1;P2;durP2;ratioP2
3781;SDS011;6881;49.962;7.718;2022-07-15T00:02:00;3.63;;;2.90;;
3781;SDS011;6881;49.962;7.718;2022-07-15T00:04:25;5.53;;;2.53;;
3781;SDS011;6881;49.962;7.718;2022-07-15T00:06:51;4.57;;;3.30;;
3781;SDS011;6881;49.962;7.718;2022-07-15T00:09:16;3.23;;;2.90;;
3781;SDS011;6881;49.962;7.718;2022-07-15T00:11:42;7.37;;;3.00;;
3781;SDS011;6881;49.962;7.718;2022-07-15T00:14:07;4.97;;;3.30;;
3781;SDS011;6881;49.962;7.718;2022-07-15T00:16:32;4.37;;;3.97;;
3781;SDS011;6881;49.962;7.718;2022-07-15T00:18:58;3.33;;;2.63;;
3781;SDS011;6881;49.962;7.718;2022-07-15T00:21:23;3.13;;;2.80;;
3781;SDS011;6881;49.962;7.718;2022-07-15T00:23:48;3.40;;;2.80;;
3781;SDS011;6881;49.962;7.718;2022-07-15T00:26:14;5.50;;;3.20;;
3781;SDS011;6881;49.962;7.718;2022-07-15T00:28:39;2.70;;;2.50;;
3781;SDS011;6881;49.962;7.718;2022-07-15T00:31:04;3.17;;;2.87;;
3781;SDS011;6881;49.962;7.718;2022-07-15T00:33:30;5.33;;;3.00;;
3781;SDS011;6881;49.962;7.718;2022-07-15T00:35:55;3.23;;;2.93;;
3781;SDS011;6881;49.962;7.718;2022-07-15T00:38:21;5.37;;;2.73;;
3781;SDS011;6881;49.962;7.718;2022-07-15T00:40:47;4.03;;;2.63;;
3781;SDS011;6881;49.962;7.718;2022-07-15T00:43:14;4.53;;;3.50;;
3781;SDS011;6881;49.962;7.718;2022-07-15T00:45:43;5.20;;;3.73;;
3781;SDS011;6881;49.962;7.718;2022-07-15T00:48:09;3.17;;;2.87;;
3781;SDS011;6881;49.962;7.718;2022-07-15T00:50:35;3.80;;;2.77;;
3781;SDS011;6881;49.962;7.718;2022-07-15T00:53:03;4.70;;;2.87;;
3781;SDS011;6881;49.962;7.718;2022-07-15T00:55:43;3.30;;;2.83;;
3781;SDS011;6881;49.962;7.718;2022-07-15T00:58:20;4.13;;;3.30;;
3781;SDS011;6881;49.962;7.718;2022-07-15T01:00:48;3.40;;;3.10;;
3781;SDS011;6881;49.962;7.718;2022-07-15T01:03:18;4.93;;;3.63;;
3781;SDS011;6881;49.962;7.718;2022-07-15T01:05:44;3.77;;;3.30;;
3781;SDS011;6881;49.962;7.718;2022-07-15T01:08:11;4.97;;;3.37;;
3781;SDS011;6881;49.962;7.718;2022-07-15T01:10:37;3.23;;;2.83;;
3781;SDS011;6881;49.962;7.718;2022-07-15T01:13:04;5.10;;;3.50;;
3781;SDS011;6881;49.962;7.718;2022-07-15T01:15:29;5.13;;;3.30;;
3781;SDS011;6881;49.962;7.718;2022-07-15T01:17:57;4.50;;;2.90;;
3781;SDS011;6881;49.962;7.718;2022-07-15T01:20:24;3.50;;;3.30;;
3781;SDS011;6881;49.962;7.718;2022-07-15T01:22:49;3.50;;;3.20;;
3781;SDS011;6881;49.962;7.718;2022-07-15T01:25:14;4.10;;;3.57;;
3781;SDS011;6881;49.962;7.718;2022-07-15T01:27:40;3.60;;;3.30;;
3781;SDS011;6881;49.962;7.718;2022-07-15T01:30:06;5.00;;;3.93;;
3781;SDS011;6881;49.962;7.718;2022-07-15T01:32:32;6.60;;;4.07;;
3781;SDS011;6881;49.962;7.718;2022-07-15T01:34:58;7.33;;;3.90;;
3781;SDS011;6881;49.962;7.718;2022-07-15T01:37:23;5.07;;;4.27;;
3781;SDS011;6881;49.962;7.718;2022-07-15T01:39:48;4.23;;;3.93;;
3781;SDS011;6881;49.962;7.718;2022-07-15T01:42:14;4.67;;;3.87;;
3781;SDS011;6881;49.962;7.718;2022-07-15T01:44:39;4.97;;;3.67;;
3781;SDS011;6881;49.962;7.718;2022-07-15T01:47:04;4.47;;;2.93;;
3781;SDS011;6881;49.962;7.718;2022-07-15T01:49:30;3.87;;;3.50;;
3781;SDS011;6881;49.962;7.718;2022-07-15T01:51:57;3.70;;;3.30;;
3781;SDS011;6881;49.962;7.718;2022-07-15T01:54:23;4.70;;;3.73;;
3781;SDS011;6881;49.962;7.718;2022-07-15T01:56:51;3.60;;;3.30;;
3781;SDS011;6881;49.962;7.718;2022-07-15T01:59:17;3.60;;;2.83;;
3781;SDS011;6881;49.962;7.718;2022-07-15T02:01:43;3.90;;;3.50;;
3781;SDS011;6881;49.962;7.718;2022-07-15T02:04:09;4.60;;;2.87;;
3781;SDS011;6881;49.962;7.718;2022-07-15T02:06:35;4.33;;;3.17;;
3781;SDS011;6881;49.962;7.718;2022-07-15T02:09:00;3.40;;;3.10;;
3781;SDS011;6881;49.962;7.718;2022-07-15T02:11:25;3.60;;;3.20;;
3781;SDS011;6881;49.962;7.718;2022-07-15T02:13:51;5.23;;;3.90;;
3781;SDS011;6881;49.962;7.718;2022-07-15T02:16:19;3.17;;;2.70;;
3781;SDS011;6881;49.962;7.718;2022-07-15T02:18:44;4.73;;;3.40;;
3781;SDS011;6881;49.962;7.718;2022-07-15T02:21:09;4.40;;;3.30;;
3781;SDS011;6881;49.962;7.718;2022-07-15T02:23:35;9.53;;;3.63;;
3781;SDS011;6881;49.962;7.718;2022-07-15T02:26:00;4.03;;;3.33;;
3781;SDS011;6881;49.962;7.718;2022-07-15T02:28:26;3.60;;;3.00;;
3781;SDS011;6881;49.962;7.718;2022-07-15T02:30:51;5.83;;;3.07;;
3781;SDS011;6881;49.962;7.718;2022-07-15T02:33:17;3.47;;;2.63;;
3781;SDS011;6881;49.962;7.718;2022-07-15T02:35:42;5.00;;;2.80;;
3781;SDS011;6881;49.962;7.718;2022-07-15T02:38:08;5.60;;;3.20;;
3781;SDS011;6881;49.962;7.718;2022-07-15T02:40:33;3.83;;;2.47;;
3781;SDS011;6881;49.962;7.718;2022-07-15T02:43:00;7.40;;;3.07;;
3781;SDS011;6881;49.962;7.718;2022-07-15T02:45:27;3.27;;;3.07;;
3781;SDS011;6881;49.962;7.718;2022-07-15T02:47:54;4.57;;;2.90;;
3781;SDS011;6881;49.962;7.718;2022-07-15T02:50:19;3.53;;;2.60;;
3781;SDS011;6881;49.962;7.718;2022-07-15T02:52:45;3.57;;;2.37;;
3781;SDS011;6881;49.962;7.718;2022-07-15T02:55:11;4.63;;;3.20;;
3781;SDS011;6881;49.962;7.718;2022-07-15T02:57:37;5.90;;;2.90;;
3781;SDS011;6881;49.962;7.718;2022-07-15T03:00:13;2.70;;;2.50;;
3781;SDS011;6881;49.962;7.718;2022-07-15T03:02:39;4.00;;;2.50;;
3781;SDS011;6881;49.962;7.718;2022-07-15T03:05:05;4.40;;;3.00;;
3781;SDS011;6881;49.962;7.718;2022-07-15T03:07:32;6.93;;;3.20;;
3781;SDS011;6881;49.962;7.718;2022-07-15T03:09:57;3.00;;;2.80;;
3781;SDS011;6881;49.962;7.718;2022-07-15T03:12:23;4.67;;;2.80;;
3781;SDS011;6881;49.962;7.718;2022-07-15T03:14:48;4.10;;;3.10;;
3781;SDS011;6881;49.962;7.718;2022-07-15T03:17:14;3.10;;;2.80;;
3781;SDS011;6881;49.962;7.718;2022-07-15T03:19:39;6.40;;;3.20;;
3781;SDS011;6881;49.962;7.718;2022-07-15T03:22:05;3.30;;;3.00;;
3781;SDS011;6881;49.962;7.718;2022-07-15T03:24:31;4.23;;;3.03;;
3781;SDS011;6881;49.962;7.718;2022-07-15T03:26:57;7.60;;;2.77;;
3781;SDS011;6881;49.962;7.718;2022-07-15T03:29:22;5.33;;;3.17;;
3781;SDS011;6881;49.962;7.718;2022-07-15T03:31:47;4.07;;;3.07;;
3781;SDS011;6881;49.962;7.718;2022-07-15T03:34:13;3.13;;;2.83;;
3781;SDS011;6881;49.962;7.718;2022-07-15T03:36:39;3.00;;;2.70;;
3781;SDS011;6881;49.962;7.718;2022-07-15T03:39:05;3.63;;;2.93;;
3781;SDS011;6881;49.962;7.718;2022-07-15T03:41:31;3.37;;;3.07;;
3781;SDS011;6881;49.962;7.718;2022-07-15T03:43:56;4.93;;;3.03;;
3781;SDS011;6881;49.962;7.718;2022-07-15T03:46:22;4.53;;;2.70;;
3781;SDS011;6881;49.962;7.718;2022-07-15T03:48:47;3.37;;;3.07;;
3781;SDS011;6881;49.962;7.718;2022-07-15T03:51:12;8.40;;;3.20;;
3781;SDS011;6881;49.962;7.718;2022-07-15T03:53:38;4.87;;;3.03;;
3781;SDS011;6881;49.962;7.718;2022-07-15T03:56:03;11.50;;;3.57;;
3781;SDS011;6881;49.962;7.718;2022-07-15T03:58:29;4.53;;;3.17;;
3781;SDS011;6881;49.962;7.718;2022-07-15T04:00:54;3.67;;;2.87;;
3781;SDS011;6881;49.962;7.718;2022-07-15T04:03:19;4.00;;;2.90;;
3781;SDS011;6881;49.962;7.718;2022-07-15T04:05:45;5.03;;;2.83;;
3781;SDS011;6881;49.962;7.718;2022-07-15T04:08:10;4.33;;;3.17;;
3781;SDS011;6881;49.962;7.718;2022-07-15T04:10:36;3.90;;;3.07;;
3781;SDS011;6881;49.962;7.718;2022-07-15T04:13:02;5.30;;;3.40;;
3781;SDS011;6881;49.962;7.718;2022-07-15T04:15:28;6.07;;;3.73;;
3781;SDS011;6881;49.962;7.718;2022-07-15T04:17:53;8.40;;;3.40;;
3781;SDS011;6881;49.962;7.718;2022-07-15T04:20:19;5.43;;;3.23;;
3781;SDS011;6881;49.962;7.718;2022-07-15T04:22:45;4.50;;;3.20;;
3781;SDS011;6881;49.962;7.718;2022-07-15T04:25:14;3.50;;;3.03;;
3781;SDS011;6881;49.962;7.718;2022-07-15T04:27:41;4.23;;;3.33;;
3781;SDS011;6881;49.962;7.718;2022-07-15T04:30:07;4.40;;;3.23;;
3781;SDS011;6881;49.962;7.718;2022-07-15T04:32:33;4.57;;;3.07;;
3781;SDS011;6881;49.962;7.718;2022-07-15T04:34:59;4.80;;;2.80;;
3781;SDS011;6881;49.962;7.718;2022-07-15T04:37:24;3.93;;;2.93;;
3781;SDS011;6881;49.962;7.718;2022-07-15T04:39:50;3.77;;;2.73;;
3781;SDS011;6881;49.962;7.718;2022-07-15T04:42:15;5.37;;;3.30;;
3781;SDS011;6881;49.962;7.718;2022-07-15T04:44:40;8.80;;;3.77;;
3781;SDS011;6881;49.962;7.718;2022-07-15T04:47:06;5.73;;;3.50;;
3781;SDS011;6881;49.962;7.718;2022-07-15T04:49:31;5.63;;;3.40;;
3781;SDS011;6881;49.962;7.718;2022-07-15T04:52:15;3.80;;;2.43;;
3781;SDS011;6881;49.962;7.718;2022-07-15T04:54:41;6.27;;;2.97;;
3781;SDS011;6881;49.962;7.718;2022-07-15T04:57:08;6.17;;;3.63;;
3781;SDS011;6881;49.962;7.718;2022-07-15T04:59:34;4.80;;;3.17;;
3781;SDS011;6881;49.962;7.718;2022-07-15T05:01:59;4.43;;;3.37;;
3781;SDS011;6881;49.962;7.718;2022-07-15T05:04:25;9.03;;;3.37;;
3781;SDS011;6881;49.962;7.718;2022-07-15T05:06:51;6.17;;;3.53;;
3781;SDS011;6881;49.962;7.718;2022-07-15T05:09:16;3.83;;;3.40;;
3781;SDS011;6881;49.962;7.718;2022-07-15T05:11:42;3.40;;;3.10;;
3781;SDS011;6881;49.962;7.718;2022-07-15T05:14:07;7.03;;;3.47;;
3781;SDS011;6881;49.962;7.718;2022-07-15T05:16:33;4.97;;;3.07;;
3781;SDS011;6881;49.962;7.718;2022-07-15T05:18:58;3.90;;;3.50;;
3781;SDS011;6881;49.962;7.718;2022-07-15T05:21:23;4.47;;;2.93;;
3781;SDS011;6881;49.962;7.718;2022-07-15T05:23:49;7.63;;;3.13;;
3781;SDS011;6881;49.962;7.718;2022-07-15T05:26:14;3.70;;;3.40;;
3781;SDS011;6881;49.962;7.718;2022-07-15T05:28:40;5.00;;;3.57;;
3781;SDS011;6881;49.962;7.718;2022-07-15T05:31:06;6.07;;;3.17;;
3781;SDS011;6881;49.962;7.718;2022-07-15T05:33:32;4.00;;;3.60;;
3781;SDS011;6881;49.962;7.718;2022-07-15T05:35:57;4.90;;;3.30;;
3781;SDS011;6881;49.962;7.718;2022-07-15T05:38:23;4.37;;;2.93;;
3781;SDS011;6881;49.962;7.718;2022-07-15T05:40:48;3.50;;;3.17;;
3781;SDS011;6881;49.962;7.718;2022-07-15T05:43:13;3.17;;;2.87;;
3781;SDS011;6881;49.962;7.718;2022-07-15T05:45:39;4.33;;;3.10;;
3781;SDS011;6881;49.962;7.718;2022-07-15T05:48:04;6.20;;;3.40;;
3781;SDS011;6881;49.962;7.718;2022-07-15T05:50:30;4.53;;;2.87;;
3781;SDS011;6881;49.962;7.718;2022-07-15T05:52:55;4.60;;;3.10;;
3781;SDS011;6881;49.962;7.718;2022-07-15T05:55:21;5.73;;;3.70;;
3781;SDS011;6881;49.962;7.718;2022-07-15T05:57:46;3.73;;;2.63;;
3781;SDS011;6881;49.962;7.718;2022-07-15T06:00:12;4.20;;;2.70;;
3781;SDS011;6881;49.962;7.718;2022-07-15T06:02:38;2.97;;;2.67;;
3781;SDS011;6881;49.962;7.718;2022-07-15T06:05:03;5.10;;;2.60;;
3781;SDS011;6881;49.962;7.718;2022-07-15T06:07:29;3.13;;;2.93;;
3781;SDS011;6881;49.962;7.718;2022-07-15T06:09:54;3.10;;;2.83;;
3781;SDS011;6881;49.962;7.718;2022-07-15T06:12:20;3.93;;;3.00;;
3781;SDS011;6881;49.962;7.718;2022-07-15T06:14:45;3.77;;;2.93;;
3781;SDS011;6881;49.962;7.718;2022-07-15T06:17:10;3.40;;;2.70;;
3781;SDS011;6881;49.962;7.718;2022-07-15T06:19:36;2.63;;;2.43;;
3781;SDS011;6881;49.962;7.718;2022-07-15T06:22:01;4.33;;;2.53;;
3781;SDS011;6881;49.962;7.718;2022-07-15T06:24:27;4.70;;;2.97;;
3781;SDS011;6881;49.962;7.718;2022-07-15T06:26:52;3.73;;;2.63;;
3781;SDS011;6881;49.962;7.718;2022-07-15T06:29:18;4.33;;;2.43;;
3781;SDS011;6881;49.962;7.718;2022-07-15T06:31:43;3.10;;;2.47;;
3781;SDS011;6881;49.962;7.718;2022-07-15T06:34:09;3.27;;;2.20;;
3781;SDS011;6881;49.962;7.718;2022-07-15T06:36:34;5.73;;;3.07;;
3781;SDS011;6881;49.962;7.718;2022-07-15T06:39:00;4.17;;;2.73;;
3781;SDS011;6881;49.962;7.718;2022-07-15T06:41:26;2.90;;;2.40;;
3781;SDS011;6881;49.962;7.718;2022-07-15T06:43:51;5.37;;;2.57;;
3781;SDS011;6881;49.962;7.718;2022-07-15T06:46:16;3.70;;;2.40;;
3781;SDS011;6881;49.962;7.718;2022-07-15T06:48:42;6.93;;;2.40;;
3781;SDS011;6881;49.962;7.718;2022-07-15T06:51:07;3.07;;;2.30;;
3781;SDS011;6881;49.962;7.718;2022-07-15T06:53:33;4.70;;;2.00;;
3781;SDS011;6881;49.962;7.718;2022-07-15T06:55:58;4.57;;;2.43;;
3781;SDS011;6881;49.962;7.718;2022-07-15T06:58:23;3.57;;;2.60;;
3781;SDS011;6881;49.962;7.718;2022-07-15T07:00:49;7.07;;;2.70;;
3781;SDS011;6881;49.962;7.718;2022-07-15T07:03:14;4.20;;;3.00;;
3781;SDS011;6881;49.962;7.718;2022-07-15T07:05:39;3.10;;;2.80;;
3781;SDS011;6881;49.962;7.718;2022-07-15T07:08:05;3.30;;;2.67;;
3781;SDS011;6881;49.962;7.718;2022-07-15T07:10:30;5.10;;;3.03;;
3781;SDS011;6881;49.962;7.718;2022-07-15T07:12:56;5.03;;;3.33;;
3781;SDS011;6881;49.962;7.718;2022-07-15T07:15:21;5.03;;;3.03;;
3781;SDS011;6881;49.962;7.718;2022-07-15T07:17:49;3.90;;;3.50;;
3781;SDS011;6881;49.962;7.718;2022-07-15T07:20:16;4.57;;;3.40;;
3781;SDS011;6881;49.962;7.718;2022-07-15T07:22:41;7.10;;;3.50;;
3781;SDS011;6881;49.962;7.718;2022-07-15T07:25:07;3.40;;;3.10;;
3781;SDS011;6881;49.962;7.718;2022-07-15T07:27:33;5.27;;;3.77;;
3781;SDS011;6881;49.962;7.718;2022-07-15T07:29:58;5.47;;;3.90;;
3781;SDS011;6881;49.962;7.718;2022-07-15T07:32:24;4.93;;;3.80;;
3781;SDS011;6881;49.962;7.718;2022-07-15T07:34:49;5.13;;;4.63;;
3781;SDS011;6881;49.962;7.718;2022-07-15T07:37:15;6.40;;;3.90;;
3781;SDS011;6881;49.962;7.718;2022-07-15T07:39:40;8.33;;;4.20;;
3781;SDS011;6881;49.962;7.718;2022-07-15T07:42:06;3.30;;;2.87;;
3781;SDS011;6881;49.962;7.718;2022-07-15T07:44:31;4.60;;;4.10;;
3781;SDS011;6881;49.962;7.718;2022-07-15T07:46:57;3.50;;;3.10;;
3781;SDS011;6881;49.962;7.718;2022-07-15T07:49:22;7.00;;;3.33;;
3781;SDS011;6881;49.962;7.718;2022-07-15T07:51:47;6.53;;;4.10;;
3781;SDS011;6881;49.962;7.718;2022-07-15T07:54:13;4.17;;;3.87;;
3781;SDS011;6881;49.962;7.718;2022-07-15T07:56:38;4.60;;;3.70;;
3781;SDS011;6881;49.962;7.718;2022-07-15T07:59:03;4.27;;;3.77;;
3781;SDS011;6881;49.962;7.718;2022-07-15T08:01:29;6.07;;;3.40;;
3781;SDS011;6881;49.962;7.718;2022-07-15T08:03:54;4.00;;;3.67;;
3781;SDS011;6881;49.962;7.718;2022-07-15T08:06:19;6.47;;;3.93;;
3781;SDS011;6881;49.962;7.718;2022-07-15T08:08:47;4.83;;;3.93;;
3781;SDS011;6881;49.962;7.718;2022-07-15T08:11:13;3.60;;;3.00;;
3781;SDS011;6881;49.962;7.718;2022-07-15T08:13:39;4.70;;;3.70;;
3781;SDS011;6881;49.962;7.718;2022-07-15T08:16:04;5.73;;;3.77;;
3781;SDS011;6881;49.962;7.718;2022-07-15T08:18:31;4.07;;;3.67;;
3781;SDS011;6881;49.962;7.718;2022-07-15T08:20:56;4.37;;;3.97;;
3781;SDS011;6881;49.962;7.718;2022-07-15T08:23:22;3.83;;;3.47;;
3781;SDS011;6881;49.962;7.718;2022-07-15T08:25:48;4.00;;;3.70;;
3781;SDS011;6881;49.962;7.718;2022-07-15T08:28:14;4.60;;;3.30;;
3781;SDS011;6881;49.962;7.718;2022-07-15T08:30:40;4.50;;;4.10;;
3781;SDS011;6881;49.962;7.718;2022-07-15T08:33:05;5.30;;;3.40;;
3781;SDS011;6881;49.962;7.718;2022-07-15T08:35:31;4.23;;;3.40;;
3781;SDS011;6881;49.962;7.718;2022-07-15T08:37:56;3.93;;;3.60;;
3781;SDS011;6881;49.962;7.718;2022-07-15T08:40:22;4.00;;;3.60;;
3781;SDS011;6881;49.962;7.718;2022-07-15T08:42:49;5.60;;;3.67;;
3781;SDS011;6881;49.962;7.718;2022-07-15T08:45:15;3.93;;;3.63;;
3781;SDS011;6881;49.962;7.718;2022-07-15T08:47:42;5.70;;;4.53;;
3781;SDS011;6881;49.962;7.718;2022-07-15T08:50:09;4.23;;;3.83;;
3781;SDS011;6881;49.962;7.718;2022-07-15T08:52:39;4.73;;;4.33;;
3781;SDS011;6881;49.962;7.718;2022-07-15T08:55:06;6.87;;;4.63;;
3781;SDS011;6881;49.962;7.718;2022-07-15T08:57:32;5.83;;;4.77;;
3781;SDS011;6881;49.962;7.718;2022-07-15T08:59:57;5.83;;;3.80;;
3781;SDS011;6881;49.962;7.718;2022-07-15T09:02:23;5.03;;;4.07;;
3781;SDS011;6881;49.962;7.718;2022-07-15T09:13:12;5.00;;;4.50;;
3781;SDS011;6881;49.962;7.718;2022-07-15T09:15:46;4.90;;;4.37;;
3781;SDS011;6881;49.962;7.718;2022-07-15T09:18:13;6.10;;;3.50;;
3781;SDS011;6881;49.962;7.718;2022-07-15T09:20:40;3.90;;;3.40;;
3781;SDS011;6881;49.962;7.718;2022-07-15T09:23:07;4.63;;;3.67;;
3781;SDS011;6881;49.962;7.718;2022-07-15T09:25:34;4.50;;;3.90;;
3781;SDS011;6881;49.962;7.718;2022-07-15T09:28:04;5.10;;;3.63;;
3781;SDS011;6881;49.962;7.718;2022-07-15T09:30:40;5.03;;;4.60;;
3781;SDS011;6881;49.962;7.718;2022-07-15T09:33:27;5.87;;;4.30;;
3781;SDS011;6881;49.962;7.718;2022-07-15T09:36:12;3.90;;;3.60;;
3781;SDS011;6881;49.962;7.718;2022-07-15T09:44:11;3.70;;;3.40;;
3781;SDS011;6881;49.962;7.718;2022-07-15T09:46:45;4.03;;;3.23;;
3781;SDS011;6881;49.962;7.718;2022-07-15T09:49:15;3.83;;;3.10;;
3781;SDS011;6881;49.962;7.718;2022-07-15T09:51:55;4.70;;;3.80;;
3781;SDS011;6881;49.962;7.718;2022-07-15T09:54:22;3.90;;;3.60;;
3781;SDS011;6881;49.962;7.718;2022-07-15T09:56:48;4.63;;;4.23;;
3781;SDS011;6881;49.962;7.718;2022-07-15T09:59:15;4.93;;;3.77;;
3781;SDS011;6881;49.962;7.718;2022-07-15T10:01:41;6.53;;;3.67;;
3781;SDS011;6881;49.962;7.718;2022-07-15T10:04:06;5.77;;;4.70;;
3781;SDS011;6881;49.962;7.718;2022-07-15T10:06:33;5.53;;;4.50;;
3781;SDS011;6881;49.962;7.718;2022-07-15T10:09:03;4.13;;;3.73;;
3781;SDS011;6881;49.962;7.718;2022-07-15T10:11:31;5.43;;;4.50;;
3781;SDS011;6881;49.962;7.718;2022-07-15T10:14:37;7.20;;;4.03;;
3781;SDS011;6881;49.962;7.718;2022-07-15T10:22:40;5.10;;;4.20;;
3781;SDS011;6881;49.962;7.718;2022-07-15T10:26:00;4.77;;;4.20;;
3781;SDS011;6881;49.962;7.718;2022-07-15T10:28:09;5.03;;;4.30;;
3781;SDS011;6881;49.962;7.718;2022-07-15T10:30:41;5.07;;;4.23;;
3781;SDS011;6881;49.962;7.718;2022-07-15T10:35:34;3.73;;;3.43;;
3781;SDS011;6881;49.962;7.718;2022-07-15T10:41:02;6.10;;;3.70;;
3781;SDS011;6881;49.962;7.718;2022-07-15T10:43:43;6.63;;;4.47;;
3781;SDS011;6881;49.962;7.718;2022-07-15T10:48:48;4.10;;;3.70;;
3781;SDS011;6881;49.962;7.718;2022-07-15T10:54:02;4.17;;;3.77;;
3781;SDS011;6881;49.962;7.718;2022-07-15T10:56:29;4.10;;;3.70;;
3781;SDS011;6881;49.962;7.718;2022-07-15T10:59:09;4.23;;;3.83;;
3781;SDS011;6881;49.962;7.718;2022-07-15T11:01:39;3.93;;;3.53;;
3781;SDS011;6881;49.962;7.718;2022-07-15T11:04:10;5.40;;;4.10;;
3781;SDS011;6881;49.962;7.718;2022-07-15T11:15:16;4.03;;;3.63;;
3781;SDS011;6881;49.962;7.718;2022-07-15T11:17:43;5.03;;;4.53;;
3781;SDS011;6881;49.962;7.718;2022-07-15T11:20:30;5.90;;;4.20;;
3781;SDS011;6881;49.962;7.718;2022-07-15T11:22:58;4.30;;;3.90;;
3781;SDS011;6881;49.962;7.718;2022-07-15T11:25:29;4.27;;;3.77;;
3781;SDS011;6881;49.962;7.718;2022-07-15T11:28:09;4.53;;;3.37;;
3781;SDS011;6881;49.962;7.718;2022-07-15T11:30:40;4.20;;;3.90;;
3781;SDS011;6881;49.962;7.718;2022-07-15T11:33:08;3.57;;;3.27;;
3781;SDS011;6881;49.962;7.718;2022-07-15T11:35:43;3.67;;;3.30;;
3781;SDS011;6881;49.962;7.718;2022-07-15T11:38:10;4.97;;;3.63;;
3781;SDS011;6881;49.962;7.718;2022-07-15T11:40:36;4.00;;;3.70;;
3781;SDS011;6881;49.962;7.718;2022-07-15T11:43:26;4.37;;;3.97;;
3781;SDS011;6881;49.962;7.718;2022-07-15T11:46:10;4.10;;;3.70;;
3781;SDS011;6881;49.962;7.718;2022-07-15T11:48:39;4.43;;;4.03;;
3781;SDS011;6881;49.962;7.718;2022-07-15T11:51:05;4.63;;;4.23;;
3781;SDS011;6881;49.962;7.718;2022-07-15T11:53:39;4.87;;;4.47;;
3781;SDS011;6881;49.962;7.718;2022-07-15T11:56:06;4.10;;;3.80;;
3781;SDS011;6881;49.962;7.718;2022-07-15T11:58:33;3.97;;;3.67;;
3781;SDS011;6881;49.962;7.718;2022-07-15T12:01:07;4.30;;;3.43;;
3781;SDS011;6881;49.962;7.718;2022-07-15T12:03:47;4.70;;;3.97;;
3781;SDS011;6881;49.962;7.718;2022-07-15T12:06:23;4.97;;;4.47;;
3781;SDS011;6881;49.962;7.718;2022-07-15T12:16:19;5.93;;;5.43;;
3781;SDS011;6881;49.962;7.718;2022-07-15T12:18:47;5.23;;;4.83;;
3781;SDS011;6881;49.962;7.718;2022-07-15T12:21:12;5.30;;;4.80;;
3781;SDS011;6881;49.962;7.718;2022-07-15T12:23:39;4.90;;;4.50;;
3781;SDS011;6881;49.962;7.718;2022-07-15T12:26:06;5.37;;;4.87;;
3781;SDS011;6881;49.962;7.718;2022-07-15T12:28:33;6.20;;;5.07;;
3781;SDS011;6881;49.962;7.718;2022-07-15T12:30:59;5.20;;;4.47;;
3781;SDS011;6881;49.962;7.718;2022-07-15T12:33:24;7.47;;;5.50;;
3781;SDS011;6881;49.962;7.718;2022-07-15T12:35:50;5.33;;;4.93;;
3781;SDS011;6881;49.962;7.718;2022-07-15T12:38:39;6.60;;;4.77;;
3781;SDS011;6881;49.962;7.718;2022-07-15T12:41:09;4.60;;;4.20;;
3781;SDS011;6881;49.962;7.718;2022-07-15T12:43:46;4.80;;;4.30;;
3781;SDS011;6881;49.962;7.718;2022-07-15T12:46:18;5.17;;;4.70;;
3781;SDS011;6881;49.962;7.718;2022-07-15T12:48:48;4.77;;;4.30;;
3781;SDS011;6881;49.962;7.718;2022-07-15T12:51:15;5.50;;;4.87;;
3781;SDS011;6881;49.962;7.718;2022-07-15T12:53:42;6.63;;;4.30;;
3781;SDS011;6881;49.962;7.718;2022-07-15T12:56:08;4.63;;;4.07;;
3781;SDS011;6881;49.962;7.718;2022-07-15T12:58:33;6.00;;;3.83;;
3781;SDS011;6881;49.962;7.718;2022-07-15T13:01:10;6.00;;;5.40;;
3781;SDS011;6881;49.962;7.718;2022-07-15T13:03:37;6.53;;;4.97;;
3781;SDS011;6881;49.962;7.718;2022-07-15T13:06:03;5.60;;;4.13;;
3781;SDS011;6881;49.962;7.718;2022-07-15T13:08:30;4.30;;;3.80;;
3781;SDS011;6881;49.962;7.718;2022-07-15T13:11:05;4.93;;;4.43;;
3781;SDS011;6881;49.962;7.718;2022-07-15T13:13:33;4.07;;;3.67;;
3781;SDS011;6881;49.962;7.718;2022-07-15T13:16:00;4.13;;;3.80;;
3781;SDS011;6881;49.962;7.718;2022-07-15T13:18:27;4.53;;;4.13;;
3781;SDS011;6881;49.962;7.718;2022-07-15T13:20:53;4.00;;;3.70;;
3781;SDS011;6881;49.962;7.718;2022-07-15T13:23:19;4.80;;;4.40;;
3781;SDS011;6881;49.962;7.718;2022-07-15T13:25:45;4.77;;;4.37;;
3781;SDS011;6881;49.962;7.718;2022-07-15T13:28:12;6.17;;;4.30;;
3781;SDS011;6881;49.962;7.718;2022-07-15T13:30:38;4.47;;;4.10;;
3781;SDS011;6881;49.962;7.718;2022-07-15T13:33:04;4.70;;;4.20;;
3781;SDS011;6881;49.962;7.718;2022-07-15T13:35:30;4.40;;;4.00;;
3781;SDS011;6881;49.962;7.718;2022-07-15T13:37:55;4.77;;;4.37;;
3781;SDS011;6881;49.962;7.718;2022-07-15T13:40:21;4.37;;;3.97;;
3781;SDS011;6881;49.962;7.718;2022-07-15T13:42:47;4.40;;;4.10;;
3781;SDS011;6881;49.962;7.718;2022-07-15T13:45:13;6.80;;;3.20;;
3781;SDS011;6881;49.962;7.718;2022-07-15T13:47:39;3.97;;;3.67;;
3781;SDS011;6881;49.962;7.718;2022-07-15T13:50:05;3.90;;;3.50;;
3781;SDS011;6881;49.962;7.718;2022-07-15T13:52:51;3.30;;;3.00;;
3781;SDS011;6881;49.962;7.718;2022-07-15T13:55:18;3.83;;;3.53;;
3781;SDS011;6881;49.962;7.718;2022-07-15T13:57:44;3.80;;;3.57;;
3781;SDS011;6881;49.962;7.718;2022-07-15T14:00:11;3.93;;;3.53;;
3781;SDS011;6881;49.962;7.718;2022-07-15T14:02:38;6.93;;;3.60;;
3781;SDS011;6881;49.962;7.718;2022-07-15T14:05:04;4.37;;;3.10;;
3781;SDS011;6881;49.962;7.718;2022-07-15T14:07:31;3.60;;;3.30;;
3781;SDS011;6881;49.962;7.718;2022-07-15T14:09:56;4.43;;;3.47;;
3781;SDS011;6881;49.962;7.718;2022-07-15T14:12:21;5.00;;;3.30;;
3781;SDS011;6881;49.962;7.718;2022-07-15T14:14:47;3.63;;;3.33;;
3781;SDS011;6881;49.962;7.718;2022-07-15T14:17:12;4.50;;;3.80;;
3781;SDS011;6881;49.962;7.718;2022-07-15T14:19:38;3.73;;;3.07;;
3781;SDS011;6881;49.962;7.718;2022-07-15T14:22:03;3.60;;;3.30;;
3781;SDS011;6881;49.962;7.718;2022-07-15T14:24:28;7.57;;;3.10;;
3781;SDS011;6881;49.962;7.718;2022-07-15T14:26:53;3.17;;;2.87;;
3781;SDS011;6881;49.962;7.718;2022-07-15T14:29:19;6.80;;;3.60;;
3781;SDS011;6881;49.962;7.718;2022-07-15T14:31:44;4.57;;;3.03;;
3781;SDS011;6881;49.962;7.718;2022-07-15T14:34:10;5.63;;;3.50;;
3781;SDS011;6881;49.962;7.718;2022-07-15T14:36:35;3.30;;;3.00;;
3781;SDS011;6881;49.962;7.718;2022-07-15T14:39:00;5.87;;;3.37;;
3781;SDS011;6881;49.962;7.718;2022-07-15T14:41:26;3.10;;;2.80;;
3781;SDS011;6881;49.962;7.718;2022-07-15T14:43:52;2.87;;;2.63;;
3781;SDS011;6881;49.962;7.718;2022-07-15T14:46:17;3.80;;;3.20;;
3781;SDS011;6881;49.962;7.718;2022-07-15T14:48:42;3.53;;;2.73;;
3781;SDS011;6881;49.962;7.718;2022-07-15T14:51:08;3.80;;;3.47;;
3781;SDS011;6881;49.962;7.718;2022-07-15T14:53:33;5.37;;;3.00;;
3781;SDS011;6881;49.962;7.718;2022-07-15T14:55:58;3.30;;;2.40;;
3781;SDS011;6881;49.962;7.718;2022-07-15T14:58:24;4.60;;;2.60;;
3781;SDS011;6881;49.962;7.718;2022-07-15T15:00:49;3.13;;;2.83;;
3781;SDS011;6881;49.962;7.718;2022-07-15T15:03:15;3.73;;;3.23;;
3781;SDS011;6881;49.962;7.718;2022-07-15T15:05:41;3.10;;;2.73;;
3781;SDS011;6881;49.962;7.718;2022-07-15T15:08:07;6.33;;;2.57;;
3781;SDS011;6881;49.962;7.718;2022-07-15T15:10:32;4.30;;;2.37;;
3781;SDS011;6881;49.962;7.718;2022-07-15T15:12:58;3.17;;;2.33;;
3781;SDS011;6881;49.962;7.718;2022-07-15T15:15:23;3.37;;;2.50;;
3781;SDS011;6881;49.962;7.718;2022-07-15T15:17:49;2.37;;;2.17;;
3781;SDS011;6881;49.962;7.718;2022-07-15T15:20:15;2.50;;;2.30;;
3781;SDS011;6881;49.962;7.718;2022-07-15T15:22:40;3.63;;;3.23;;
3781;SDS011;6881;49.962;7.718;2022-07-15T15:25:06;2.73;;;2.53;;
3781;SDS011;6881;49.962;7.718;2022-07-15T15:27:32;3.50;;;2.70;;
3781;SDS011;6881;49.962;7.718;2022-07-15T15:29:58;3.30;;;2.50;;
3781;SDS011;6881;49.962;7.718;2022-07-15T15:32:23;7.13;;;3.17;;
3781;SDS011;6881;49.962;7.718;2022-07-15T15:34:49;2.60;;;2.40;;
3781;SDS011;6881;49.962;7.718;2022-07-15T15:37:14;3.87;;;2.60;;
3781;SDS011;6881;49.962;7.718;2022-07-15T15:39:40;4.20;;;2.60;;
3781;SDS011;6881;49.962;7.718;2022-07-15T15:42:06;6.00;;;2.47;;
3781;SDS011;6881;49.962;7.718;2022-07-15T15:44:32;3.90;;;2.40;;
3781;SDS011;6881;49.962;7.718;2022-07-15T15:46:57;8.83;;;3.33;;
3781;SDS011;6881;49.962;7.718;2022-07-15T15:49:23;5.13;;;2.63;;
3781;SDS011;6881;49.962;7.718;2022-07-15T15:51:48;3.20;;;2.50;;
3781;SDS011;6881;49.962;7.718;2022-07-15T15:54:14;2.67;;;2.47;;
3781;SDS011;6881;49.962;7.718;2022-07-15T15:56:39;3.70;;;2.40;;
3781;SDS011;6881;49.962;7.718;2022-07-15T15:59:05;3.03;;;2.70;;
3781;SDS011;6881;49.962;7.718;2022-07-15T16:01:31;2.80;;;2.43;;